sensor_id;sensor_type;location;lat;lon;timestamp;P1;durP1;ratioP1;P2;durP2;ratioP2
3971;SDS011;2000;47.572;14.202;2024-03-02T00:01:18;4.93;;;3.90;;
3971;SDS011;2000;47.572;14.202;2024-03-02T00:03:46;6.70;;;3.83;;
3971;SDS011;2000;47.572;14.202;2024-03-02T00:06:13;4.30;;;3.33;;
3971;SDS011;2000;47.572;14.202;2024-03-02T00:08:40;5.07;;;3.30;;
3971;SDS011;2000;47.572;14.202;2024-03-02T00:11:07;6.47;;;4.00;;
3971;SDS011;2000;47.572;14.202;2024-03-02T00:13:34;7.30;;;3.30;;
3971;SDS011;2000;47.572;14.202;2024-03-02T00:16:02;5.90;;;3.97;;
3971;SDS011;2000;47.572;14.202;2024-03-02T00:18:32;5.70;;;3.37;;
3971;SDS011;2000;47.572;14.202;2024-03-02T00:21:01;11.87;;;4.20;;
3971;SDS011;2000;47.572;14.202;2024-03-02T00:23:32;4.30;;;3.40;;
3971;SDS011;2000;47.572;14.202;2024-03-02T00:26:00;5.40;;;2.70;;
3971;SDS011;2000;47.572;14.202;2024-03-02T00:28:27;7.90;;;4.13;;
3971;SDS011;2000;47.572;14.202;2024-03-02T00:33:30;7.33;;;4.70;;
3971;SDS011;2000;47.572;14.202;2024-03-02T00:36:04;7.93;;;4.00;;
3971;SDS011;2000;47.572;14.202;2024-03-02T00:38:33;5.97;;;3.73;;
3971;SDS011;2000;47.572;14.202;2024-03-02T00:41:04;4.73;;;3.47;;
3971;SDS011;2000;47.572;14.202;2024-03-02T00:43:56;6.10;;;3.37;;
3971;SDS011;2000;47.572;14.202;2024-03-02T00:46:35;5.87;;;4.33;;
3971;SDS011;2000;47.572;14.202;2024-03-02T00:49:04;9.73;;;5.00;;
3971;SDS011;2000;47.572;14.202;2024-03-02T00:51:32;40.43;;;7.07;;
3971;SDS011;2000;47.572;14.202;2024-03-02T00:54:01;11.27;;;6.03;;
3971;SDS011;2000;47.572;14.202;2024-03-02T00:56:31;11.37;;;5.53;;
3971;SDS011;2000;47.572;14.202;2024-03-02T00:58:59;19.23;;;6.70;;
3971;SDS011;2000;47.572;14.202;2024-03-02T01:01:26;13.37;;;6.10;;
3971;SDS011;2000;47.572;14.202;2024-03-02T01:03:53;6.43;;;4.90;;
3971;SDS011;2000;47.572;14.202;2024-03-02T01:06:20;6.00;;;5.07;;
3971;SDS011;2000;47.572;14.202;2024-03-02T01:08:49;6.60;;;5.17;;
3971;SDS011;2000;47.572;14.202;2024-03-02T01:11:19;7.90;;;5.17;;
3971;SDS011;2000;47.572;14.202;2024-03-02T01:13:49;11.53;;;5.40;;
3971;SDS011;2000;47.572;14.202;2024-03-02T01:16:17;7.83;;;5.50;;
3971;SDS011;2000;47.572;14.202;2024-03-02T01:18:44;7.10;;;4.53;;
3971;SDS011;2000;47.572;14.202;2024-03-02T01:21:11;13.03;;;6.03;;
3971;SDS011;2000;47.572;14.202;2024-03-02T01:23:38;6.33;;;4.97;;
3971;SDS011;2000;47.572;14.202;2024-03-02T01:26:06;16.87;;;4.80;;
3971;SDS011;2000;47.572;14.202;2024-03-02T01:28:33;7.13;;;4.37;;
3971;SDS011;2000;47.572;14.202;2024-03-02T01:31:00;12.43;;;5.20;;
3971;SDS011;2000;47.572;14.202;2024-03-02T01:33:28;65.37;;;6.40;;
3971;SDS011;2000;47.572;14.202;2024-03-02T01:35:55;52.47;;;5.00;;
3971;SDS011;2000;47.572;14.202;2024-03-02T01:38:22;6.73;;;3.90;;
3971;SDS011;2000;47.572;14.202;2024-03-02T01:40:49;38.23;;;4.97;;
3971;SDS011;2000;47.572;14.202;2024-03-02T01:43:16;13.20;;;4.70;;
3971;SDS011;2000;47.572;14.202;2024-03-02T01:45:43;30.00;;;4.60;;
3971;SDS011;2000;47.572;14.202;2024-03-02T01:48:11;15.63;;;3.90;;
3971;SDS011;2000;47.572;14.202;2024-03-02T01:50:38;48.80;;;5.87;;
3971;SDS011;2000;47.572;14.202;2024-03-02T01:53:05;39.43;;;5.30;;
3971;SDS011;2000;47.572;14.202;2024-03-02T01:55:32;16.37;;;5.57;;
3971;SDS011;2000;47.572;14.202;2024-03-02T01:58:01;7.83;;;3.90;;
3971;SDS011;2000;47.572;14.202;2024-03-02T02:00:28;9.60;;;4.90;;
3971;SDS011;2000;47.572;14.202;2024-03-02T02:02:56;24.67;;;5.30;;
3971;SDS011;2000;47.572;14.202;2024-03-02T02:05:24;66.27;;;6.37;;
3971;SDS011;2000;47.572;14.202;2024-03-02T02:07:51;28.03;;;4.80;;
3971;SDS011;2000;47.572;14.202;2024-03-02T02:10:18;57.37;;;6.07;;
3971;SDS011;2000;47.572;14.202;2024-03-02T02:12:45;22.33;;;4.07;;
3971;SDS011;2000;47.572;14.202;2024-03-02T02:15:22;41.77;;;5.50;;
3971;SDS011;2000;47.572;14.202;2024-03-02T02:17:51;72.07;;;6.07;;
3971;SDS011;2000;47.572;14.202;2024-03-02T02:20:18;7.83;;;4.67;;
3971;SDS011;2000;47.572;14.202;2024-03-02T02:23:19;42.73;;;6.53;;
3971;SDS011;2000;47.572;14.202;2024-03-02T02:25:40;130.30;;;7.53;;
3971;SDS011;2000;47.572;14.202;2024-03-02T02:28:07;178.87;;;9.80;;
3971;SDS011;2000;47.572;14.202;2024-03-02T02:30:34;27.13;;;6.00;;
3971;SDS011;2000;47.572;14.202;2024-03-02T02:33:01;86.93;;;6.43;;
3971;SDS011;2000;47.572;14.202;2024-03-02T02:35:28;26.40;;;5.87;;
3971;SDS011;2000;47.572;14.202;2024-03-02T02:37:56;32.87;;;5.13;;
3971;SDS011;2000;47.572;14.202;2024-03-02T02:40:25;13.73;;;4.43;;
3971;SDS011;2000;47.572;14.202;2024-03-02T02:42:52;89.23;;;6.90;;
3971;SDS011;2000;47.572;14.202;2024-03-02T02:45:19;19.33;;;4.50;;
3971;SDS011;2000;47.572;14.202;2024-03-02T02:47:46;22.43;;;4.23;;
3971;SDS011;2000;47.572;14.202;2024-03-02T02:50:13;16.53;;;5.30;;
3971;SDS011;2000;47.572;14.202;2024-03-02T02:52:41;48.57;;;5.40;;
3971;SDS011;2000;47.572;14.202;2024-03-02T02:55:09;8.17;;;5.73;;
3971;SDS011;2000;47.572;14.202;2024-03-02T02:57:39;14.47;;;5.60;;
3971;SDS011;2000;47.572;14.202;2024-03-02T03:00:13;12.67;;;6.23;;
3971;SDS011;2000;47.572;14.202;2024-03-02T03:02:44;8.37;;;5.80;;
3971;SDS011;2000;47.572;14.202;2024-03-02T03:05:15;16.57;;;5.47;;
3971;SDS011;2000;47.572;14.202;2024-03-02T03:07:42;24.00;;;5.80;;
3971;SDS011;2000;47.572;14.202;2024-03-02T03:10:11;15.43;;;3.70;;
3971;SDS011;2000;47.572;14.202;2024-03-02T03:12:38;4.43;;;3.70;;
3971;SDS011;2000;47.572;14.202;2024-03-02T03:15:07;5.83;;;4.03;;
3971;SDS011;2000;47.572;14.202;2024-03-02T03:17:36;12.33;;;3.33;;
3971;SDS011;2000;47.572;14.202;2024-03-02T03:20:04;3.03;;;2.73;;
3971;SDS011;2000;47.572;14.202;2024-03-02T03:22:42;5.07;;;3.40;;
3971;SDS011;2000;47.572;14.202;2024-03-02T03:25:09;6.67;;;3.83;;
3971;SDS011;2000;47.572;14.202;2024-03-02T03:27:36;10.50;;;3.03;;
3971;SDS011;2000;47.572;14.202;2024-03-02T03:30:03;3.10;;;2.80;;
3971;SDS011;2000;47.572;14.202;2024-03-02T03:32:33;2.40;;;2.20;;
3971;SDS011;2000;47.572;14.202;2024-03-02T03:35:00;8.30;;;3.53;;
3971;SDS011;2000;47.572;14.202;2024-03-02T03:37:27;25.00;;;4.50;;
3971;SDS011;2000;47.572;14.202;2024-03-02T03:40:01;19.07;;;3.60;;
3971;SDS011;2000;47.572;14.202;2024-03-02T03:42:29;5.23;;;3.77;;
3971;SDS011;2000;47.572;14.202;2024-03-02T03:44:56;17.23;;;3.60;;
3971;SDS011;2000;47.572;14.202;2024-03-02T03:47:23;12.33;;;3.43;;
3971;SDS011;2000;47.572;14.202;2024-03-02T03:49:50;5.97;;;3.03;;
3971;SDS011;2000;47.572;14.202;2024-03-02T03:52:17;8.23;;;3.10;;
3971;SDS011;2000;47.572;14.202;2024-03-02T03:54:44;7.67;;;3.40;;
3971;SDS011;2000;47.572;14.202;2024-03-02T03:57:11;17.23;;;4.00;;
3971;SDS011;2000;47.572;14.202;2024-03-02T03:59:38;36.90;;;5.93;;
3971;SDS011;2000;47.572;14.202;2024-03-02T04:02:05;5.90;;;4.33;;
3971;SDS011;2000;47.572;14.202;2024-03-02T04:04:32;49.13;;;6.57;;
3971;SDS011;2000;47.572;14.202;2024-03-02T04:07:00;12.10;;;5.63;;
3971;SDS011;2000;47.572;14.202;2024-03-02T04:09:28;7.23;;;4.80;;
3971;SDS011;2000;47.572;14.202;2024-03-02T04:11:55;10.63;;;4.27;;
3971;SDS011;2000;47.572;14.202;2024-03-02T04:14:22;13.50;;;4.00;;
3971;SDS011;2000;47.572;14.202;2024-03-02T04:16:49;30.93;;;4.03;;
3971;SDS011;2000;47.572;14.202;2024-03-02T04:19:16;6.97;;;3.43;;
3971;SDS011;2000;47.572;14.202;2024-03-02T04:21:43;3.70;;;3.00;;
3971;SDS011;2000;47.572;14.202;2024-03-02T04:24:10;6.70;;;2.90;;
3971;SDS011;2000;47.572;14.202;2024-03-02T04:26:37;23.23;;;4.70;;
3971;SDS011;2000;47.572;14.202;2024-03-02T04:29:04;11.43;;;4.10;;
3971;SDS011;2000;47.572;14.202;2024-03-02T04:31:31;28.90;;;6.10;;
3971;SDS011;2000;47.572;14.202;2024-03-02T04:33:58;55.90;;;5.77;;
3971;SDS011;2000;47.572;14.202;2024-03-02T04:36:25;9.83;;;5.27;;
3971;SDS011;2000;47.572;14.202;2024-03-02T04:38:52;50.20;;;5.73;;
3971;SDS011;2000;47.572;14.202;2024-03-02T04:41:19;28.73;;;4.80;;
3971;SDS011;2000;47.572;14.202;2024-03-02T04:43:46;8.53;;;5.00;;
3971;SDS011;2000;47.572;14.202;2024-03-02T04:46:13;13.20;;;5.40;;
3971;SDS011;2000;47.572;14.202;2024-03-02T04:48:40;20.70;;;5.20;;
3971;SDS011;2000;47.572;14.202;2024-03-02T04:51:08;17.10;;;4.40;;
3971;SDS011;2000;47.572;14.202;2024-03-02T04:53:35;9.70;;;4.13;;
3971;SDS011;2000;47.572;14.202;2024-03-02T04:56:02;6.80;;;4.53;;
3971;SDS011;2000;47.572;14.202;2024-03-02T04:58:35;44.03;;;5.50;;
3971;SDS011;2000;47.572;14.202;2024-03-02T05:01:02;145.90;;;9.27;;
3971;SDS011;2000;47.572;14.202;2024-03-02T05:03:29;9.07;;;4.40;;
3971;SDS011;2000;47.572;14.202;2024-03-02T05:05:56;7.70;;;4.37;;
3971;SDS011;2000;47.572;14.202;2024-03-02T05:08:23;6.40;;;3.67;;
3971;SDS011;2000;47.572;14.202;2024-03-02T05:10:51;5.70;;;3.67;;
3971;SDS011;2000;47.572;14.202;2024-03-02T05:13:18;47.37;;;3.77;;
3971;SDS011;2000;47.572;14.202;2024-03-02T05:15:47;3.63;;;3.20;;
3971;SDS011;2000;47.572;14.202;2024-03-02T05:18:14;6.43;;;2.83;;
3971;SDS011;2000;47.572;14.202;2024-03-02T05:20:41;5.30;;;3.03;;
3971;SDS011;2000;47.572;14.202;2024-03-02T05:23:09;9.10;;;2.80;;
3971;SDS011;2000;47.572;14.202;2024-03-02T05:25:36;3.43;;;2.90;;
3971;SDS011;2000;47.572;14.202;2024-03-02T05:28:03;2.30;;;2.10;;
3971;SDS011;2000;47.572;14.202;2024-03-02T05:30:30;2.60;;;2.40;;
3971;SDS011;2000;47.572;14.202;2024-03-02T05:32:57;4.20;;;3.47;;
3971;SDS011;2000;47.572;14.202;2024-03-02T05:35:24;4.40;;;4.00;;
3971;SDS011;2000;47.572;14.202;2024-03-02T05:37:51;3.33;;;3.03;;
3971;SDS011;2000;47.572;14.202;2024-03-02T05:40:18;3.40;;;2.37;;
3971;SDS011;2000;47.572;14.202;2024-03-02T05:42:49;2.27;;;2.07;;
3971;SDS011;2000;47.572;14.202;2024-03-02T05:45:16;2.80;;;2.20;;
3971;SDS011;2000;47.572;14.202;2024-03-02T05:47:43;2.60;;;2.13;;
3971;SDS011;2000;47.572;14.202;2024-03-02T05:50:10;2.33;;;2.13;;
3971;SDS011;2000;47.572;14.202;2024-03-02T05:52:37;3.47;;;2.70;;
3971;SDS011;2000;47.572;14.202;2024-03-02T05:55:05;2.53;;;2.33;;
3971;SDS011;2000;47.572;14.202;2024-03-02T05:57:32;3.30;;;2.50;;
3971;SDS011;2000;47.572;14.202;2024-03-02T06:00:20;3.10;;;2.40;;
3971;SDS011;2000;47.572;14.202;2024-03-02T06:02:47;2.90;;;2.10;;
3971;SDS011;2000;47.572;14.202;2024-03-02T06:05:14;3.57;;;2.37;;
3971;SDS011;2000;47.572;14.202;2024-03-02T06:07:42;2.40;;;1.70;;
3971;SDS011;2000;47.572;14.202;2024-03-02T06:10:09;3.83;;;2.77;;
3971;SDS011;2000;47.572;14.202;2024-03-02T06:12:40;4.80;;;2.70;;
3971;SDS011;2000;47.572;14.202;2024-03-02T06:15:07;6.60;;;3.47;;
3971;SDS011;2000;47.572;14.202;2024-03-02T06:17:35;9.17;;;3.87;;
3971;SDS011;2000;47.572;14.202;2024-03-02T06:20:02;6.23;;;4.50;;
3971;SDS011;2000;47.572;14.202;2024-03-02T06:22:29;15.57;;;5.20;;
3971;SDS011;2000;47.572;14.202;2024-03-02T06:24:56;11.83;;;5.80;;
3971;SDS011;2000;47.572;14.202;2024-03-02T06:27:24;7.33;;;3.37;;
3971;SDS011;2000;47.572;14.202;2024-03-02T06:29:51;3.97;;;2.90;;
3971;SDS011;2000;47.572;14.202;2024-03-02T06:32:18;7.80;;;2.67;;
3971;SDS011;2000;47.572;14.202;2024-03-02T06:34:45;3.33;;;2.60;;
3971;SDS011;2000;47.572;14.202;2024-03-02T06:37:12;3.00;;;2.30;;
3971;SDS011;2000;47.572;14.202;2024-03-02T06:39:39;3.73;;;2.67;;
3971;SDS011;2000;47.572;14.202;2024-03-02T06:42:06;4.50;;;3.70;;
3971;SDS011;2000;47.572;14.202;2024-03-02T06:44:33;7.77;;;5.07;;
3971;SDS011;2000;47.572;14.202;2024-03-02T06:47:00;4.07;;;3.43;;
3971;SDS011;2000;47.572;14.202;2024-03-02T06:49:27;5.13;;;3.07;;
3971;SDS011;2000;47.572;14.202;2024-03-02T06:51:54;6.67;;;4.23;;
3971;SDS011;2000;47.572;14.202;2024-03-02T06:54:22;34.40;;;7.00;;
3971;SDS011;2000;47.572;14.202;2024-03-02T06:56:49;30.90;;;7.00;;
3971;SDS011;2000;47.572;14.202;2024-03-02T06:59:16;7.40;;;6.17;;
3971;SDS011;2000;47.572;14.202;2024-03-02T07:01:43;24.23;;;6.90;;
3971;SDS011;2000;47.572;14.202;2024-03-02T07:04:10;88.50;;;9.37;;
3971;SDS011;2000;47.572;14.202;2024-03-02T07:06:37;89.03;;;7.27;;
3971;SDS011;2000;47.572;14.202;2024-03-02T07:09:04;142.70;;;10.00;;
3971;SDS011;2000;47.572;14.202;2024-03-02T07:11:32;38.33;;;6.20;;
3971;SDS011;2000;47.572;14.202;2024-03-02T07:13:59;105.10;;;9.83;;
3971;SDS011;2000;47.572;14.202;2024-03-02T07:16:26;169.07;;;10.53;;
3971;SDS011;2000;47.572;14.202;2024-03-02T07:19:01;162.27;;;9.60;;
3971;SDS011;2000;47.572;14.202;2024-03-02T07:21:28;42.53;;;6.50;;
3971;SDS011;2000;47.572;14.202;2024-03-02T07:23:55;7.63;;;5.67;;
3971;SDS011;2000;47.572;14.202;2024-03-02T07:26:23;50.43;;;8.23;;
3971;SDS011;2000;47.572;14.202;2024-03-02T07:28:53;43.00;;;7.77;;
3971;SDS011;2000;47.572;14.202;2024-03-02T07:31:20;115.60;;;9.33;;
3971;SDS011;2000;47.572;14.202;2024-03-02T07:33:47;46.83;;;8.03;;
3971;SDS011;2000;47.572;14.202;2024-03-02T07:36:14;74.37;;;8.13;;
3971;SDS011;2000;47.572;14.202;2024-03-02T07:38:42;56.83;;;7.93;;
3971;SDS011;2000;47.572;14.202;2024-03-02T07:41:11;10.60;;;6.80;;
3971;SDS011;2000;47.572;14.202;2024-03-02T07:43:38;10.60;;;7.60;;
3971;SDS011;2000;47.572;14.202;2024-03-02T07:46:06;9.00;;;6.90;;
3971;SDS011;2000;47.572;14.202;2024-03-02T07:48:33;8.53;;;6.47;;
3971;SDS011;2000;47.572;14.202;2024-03-02T07:51:01;9.93;;;6.90;;
3971;SDS011;2000;47.572;14.202;2024-03-02T07:53:29;9.17;;;7.07;;
3971;SDS011;2000;47.572;14.202;2024-03-02T07:55:56;12.20;;;7.53;;
3971;SDS011;2000;47.572;14.202;2024-03-02T07:58:28;8.00;;;6.20;;
3971;SDS011;2000;47.572;14.202;2024-03-02T08:00:56;9.53;;;6.57;;
3971;SDS011;2000;47.572;14.202;2024-03-02T08:03:23;10.03;;;7.33;;
3971;SDS011;2000;47.572;14.202;2024-03-02T08:05:51;10.37;;;7.70;;
3971;SDS011;2000;47.572;14.202;2024-03-02T08:08:18;9.07;;;6.90;;
3971;SDS011;2000;47.572;14.202;2024-03-02T08:10:45;10.27;;;6.90;;
3971;SDS011;2000;47.572;14.202;2024-03-02T08:13:12;9.57;;;7.47;;
3971;SDS011;2000;47.572;14.202;2024-03-02T08:15:40;11.30;;;6.67;;
3971;SDS011;2000;47.572;14.202;2024-03-02T08:18:08;14.03;;;6.27;;
3971;SDS011;2000;47.572;14.202;2024-03-02T08:20:35;10.23;;;8.00;;
3971;SDS011;2000;47.572;14.202;2024-03-02T08:23:02;10.77;;;7.77;;
3971;SDS011;2000;47.572;14.202;2024-03-02T08:25:29;16.00;;;7.10;;
3971;SDS011;2000;47.572;14.202;2024-03-02T08:27:56;12.27;;;7.10;;
3971;SDS011;2000;47.572;14.202;2024-03-02T08:30:23;10.70;;;6.33;;
3971;SDS011;2000;47.572;14.202;2024-03-02T08:32:51;17.23;;;7.20;;
3971;SDS011;2000;47.572;14.202;2024-03-02T08:35:18;24.73;;;6.90;;
3971;SDS011;2000;47.572;14.202;2024-03-02T08:37:45;9.63;;;7.00;;
3971;SDS011;2000;47.572;14.202;2024-03-02T08:40:12;6.93;;;5.70;;
3971;SDS011;2000;47.572;14.202;2024-03-02T08:42:43;6.80;;;5.57;;
3971;SDS011;2000;47.572;14.202;2024-03-02T08:45:10;8.57;;;6.43;;
3971;SDS011;2000;47.572;14.202;2024-03-02T08:47:38;9.03;;;5.70;;
3971;SDS011;2000;47.572;14.202;2024-03-02T08:50:05;8.87;;;5.30;;
3971;SDS011;2000;47.572;14.202;2024-03-02T08:52:33;13.40;;;5.93;;
3971;SDS011;2000;47.572;14.202;2024-03-02T08:55:00;8.93;;;4.97;;
3971;SDS011;2000;47.572;14.202;2024-03-02T08:57:27;7.07;;;5.47;;
3971;SDS011;2000;47.572;14.202;2024-03-02T08:59:54;10.60;;;6.20;;
3971;SDS011;2000;47.572;14.202;2024-03-02T09:02:21;8.30;;;5.23;;
3971;SDS011;2000;47.572;14.202;2024-03-02T09:04:48;10.60;;;5.23;;
3971;SDS011;2000;47.572;14.202;2024-03-02T09:07:15;9.90;;;6.00;;
3971;SDS011;2000;47.572;14.202;2024-03-02T09:09:42;9.30;;;6.40;;
3971;SDS011;2000;47.572;14.202;2024-03-02T09:12:09;11.03;;;5.97;;
3971;SDS011;2000;47.572;14.202;2024-03-02T09:14:37;12.30;;;5.37;;
3971;SDS011;2000;47.572;14.202;2024-03-02T09:17:04;9.73;;;5.97;;
3971;SDS011;2000;47.572;14.202;2024-03-02T09:19:31;12.17;;;6.17;;
3971;SDS011;2000;47.572;14.202;2024-03-02T09:21:58;11.53;;;7.40;;
3971;SDS011;2000;47.572;14.202;2024-03-02T09:24:25;10.27;;;6.50;;
3971;SDS011;2000;47.572;14.202;2024-03-02T09:26:52;9.13;;;5.80;;
3971;SDS011;2000;47.572;14.202;2024-03-02T09:29:19;10.57;;;6.20;;
3971;SDS011;2000;47.572;14.202;2024-03-02T09:31:47;6.20;;;5.10;;
3971;SDS011;2000;47.572;14.202;2024-03-02T09:34:16;8.50;;;6.10;;
3971;SDS011;2000;47.572;14.202;2024-03-02T09:36:43;6.60;;;5.47;;
3971;SDS011;2000;47.572;14.202;2024-03-02T09:39:10;11.60;;;6.03;;
3971;SDS011;2000;47.572;14.202;2024-03-02T09:41:37;12.03;;;5.90;;
3971;SDS011;2000;47.572;14.202;2024-03-02T09:44:05;9.20;;;4.73;;
3971;SDS011;2000;47.572;14.202;2024-03-02T09:46:32;13.70;;;6.30;;
3971;SDS011;2000;47.572;14.202;2024-03-02T09:49:00;8.43;;;5.73;;
3971;SDS011;2000;47.572;14.202;2024-03-02T09:51:27;7.50;;;5.20;;
3971;SDS011;2000;47.572;14.202;2024-03-02T09:53:55;8.07;;;5.63;;
3971;SDS011;2000;47.572;14.202;2024-03-02T09:56:38;11.03;;;6.20;;
3971;SDS011;2000;47.572;14.202;2024-03-02T09:59:05;9.00;;;5.80;;
3971;SDS011;2000;47.572;14.202;2024-03-02T10:01:32;11.40;;;6.37;;
3971;SDS011;2000;47.572;14.202;2024-03-02T10:04:00;6.80;;;4.63;;
3971;SDS011;2000;47.572;14.202;2024-03-02T10:06:28;12.73;;;5.20;;
3971;SDS011;2000;47.572;14.202;2024-03-02T10:08:55;18.13;;;7.40;;
3971;SDS011;2000;47.572;14.202;2024-03-02T10:11:26;18.13;;;7.50;;
3971;SDS011;2000;47.572;14.202;2024-03-02T10:14:08;8.93;;;5.53;;
3971;SDS011;2000;47.572;14.202;2024-03-02T10:16:39;9.80;;;5.70;;
3971;SDS011;2000;47.572;14.202;2024-03-02T10:19:17;12.77;;;7.77;;
3971;SDS011;2000;47.572;14.202;2024-03-02T10:21:51;12.20;;;5.47;;
3971;SDS011;2000;47.572;14.202;2024-03-02T10:24:20;10.30;;;5.20;;
3971;SDS011;2000;47.572;14.202;2024-03-02T10:26:48;7.73;;;5.53;;
3971;SDS011;2000;47.572;14.202;2024-03-02T10:29:16;15.63;;;6.73;;
3971;SDS011;2000;47.572;14.202;2024-03-02T10:31:44;12.60;;;6.97;;
3971;SDS011;2000;47.572;14.202;2024-03-02T10:34:15;7.80;;;5.77;;
3971;SDS011;2000;47.572;14.202;2024-03-02T10:36:43;20.10;;;7.90;;
3971;SDS011;2000;47.572;14.202;2024-03-02T10:39:12;16.57;;;7.00;;
3971;SDS011;2000;47.572;14.202;2024-03-02T10:41:40;19.00;;;7.60;;
3971;SDS011;2000;47.572;14.202;2024-03-02T10:44:08;13.57;;;5.80;;
3971;SDS011;2000;47.572;14.202;2024-03-02T10:46:37;11.13;;;5.60;;
3971;SDS011;2000;47.572;14.202;2024-03-02T10:49:05;18.70;;;6.07;;
3971;SDS011;2000;47.572;14.202;2024-03-02T10:51:34;31.00;;;5.60;;
3971;SDS011;2000;47.572;14.202;2024-03-02T10:54:04;21.67;;;7.13;;
3971;SDS011;2000;47.572;14.202;2024-03-02T10:56:32;12.73;;;4.80;;
3971;SDS011;2000;47.572;14.202;2024-03-02T10:59:03;13.50;;;5.00;;
3971;SDS011;2000;47.572;14.202;2024-03-02T11:01:33;9.53;;;4.63;;
3971;SDS011;2000;47.572;14.202;2024-03-02T11:04:01;18.83;;;5.00;;
3971;SDS011;2000;47.572;14.202;2024-03-02T11:06:29;11.83;;;5.20;;
3971;SDS011;2000;47.572;14.202;2024-03-02T11:09:00;13.20;;;5.10;;
3971;SDS011;2000;47.572;14.202;2024-03-02T11:11:32;9.93;;;4.57;;
3971;SDS011;2000;47.572;14.202;2024-03-02T11:14:04;7.27;;;4.70;;
3971;SDS011;2000;47.572;14.202;2024-03-02T11:16:35;6.43;;;3.23;;
3971;SDS011;2000;47.572;14.202;2024-03-02T11:19:04;12.70;;;4.37;;
3971;SDS011;2000;47.572;14.202;2024-03-02T11:21:36;9.23;;;3.70;;
3971;SDS011;2000;47.572;14.202;2024-03-02T11:27:04;12.90;;;4.13;;
3971;SDS011;2000;47.572;14.202;2024-03-02T11:32:03;4.20;;;2.97;;
3971;SDS011;2000;47.572;14.202;2024-03-02T11:34:44;10.27;;;3.40;;
3971;SDS011;2000;47.572;14.202;2024-03-02T11:37:13;5.17;;;2.07;;
3971;SDS011;2000;47.572;14.202;2024-03-02T11:39:41;3.90;;;2.70;;
3971;SDS011;2000;47.572;14.202;2024-03-02T11:42:09;3.57;;;2.20;;
3971;SDS011;2000;47.572;14.202;2024-03-02T11:44:38;6.33;;;1.90;;
3971;SDS011;2000;47.572;14.202;2024-03-02T11:47:06;8.33;;;2.10;;
3971;SDS011;2000;47.572;14.202;2024-03-02T11:49:44;1.77;;;1.40;;
3971;SDS011;2000;47.572;14.202;2024-03-02T11:52:13;1.50;;;1.40;;
3971;SDS011;2000;47.572;14.202;2024-03-02T11:54:42;2.43;;;1.50;;
3971;SDS011;2000;47.572;14.202;2024-03-02T11:57:19;1.67;;;1.00;;
3971;SDS011;2000;47.572;14.202;2024-03-02T11:59:49;7.80;;;2.30;;
3971;SDS011;2000;47.572;14.202;2024-03-02T12:02:17;4.17;;;2.00;;
3971;SDS011;2000;47.572;14.202;2024-03-02T12:04:45;2.60;;;1.40;;
3971;SDS011;2000;47.572;14.202;2024-03-02T12:07:24;1.10;;;1.00;;
3971;SDS011;2000;47.572;14.202;2024-03-02T12:10:00;3.83;;;1.90;;
3971;SDS011;2000;47.572;14.202;2024-03-02T12:12:28;2.87;;;1.70;;
3971;SDS011;2000;47.572;14.202;2024-03-02T12:14:55;2.40;;;1.57;;
3971;SDS011;2000;47.572;14.202;2024-03-02T12:17:22;1.20;;;1.20;;
3971;SDS011;2000;47.572;14.202;2024-03-02T12:19:49;3.53;;;1.70;;
3971;SDS011;2000;47.572;14.202;2024-03-02T12:22:16;1.47;;;1.40;;
3971;SDS011;2000;47.572;14.202;2024-03-02T12:24:44;2.37;;;1.60;;
3971;SDS011;2000;47.572;14.202;2024-03-02T12:27:15;1.23;;;1.03;;
3971;SDS011;2000;47.572;14.202;2024-03-02T12:29:42;1.43;;;1.10;;
3971;SDS011;2000;47.572;14.202;2024-03-02T12:32:09;2.47;;;1.33;;
3971;SDS011;2000;47.572;14.202;2024-03-02T12:34:37;2.33;;;1.57;;
3971;SDS011;2000;47.572;14.202;2024-03-02T12:37:05;1.53;;;1.43;;
3971;SDS011;2000;47.572;14.202;2024-03-02T12:39:32;1.57;;;1.33;;
3971;SDS011;2000;47.572;14.202;2024-03-02T12:41:59;2.07;;;1.50;;
3971;SDS011;2000;47.572;14.202;2024-03-02T12:44:29;3.10;;;1.53;;
3971;SDS011;2000;47.572;14.202;2024-03-02T12:46:56;2.27;;;1.30;;
3971;SDS011;2000;47.572;14.202;2024-03-02T12:49:26;3.80;;;2.13;;
3971;SDS011;2000;47.572;14.202;2024-03-02T12:51:55;4.73;;;1.33;;
3971;SDS011;2000;47.572;14.202;2024-03-02T12:54:24;2.23;;;1.77;;
3971;SDS011;2000;47.572;14.202;2024-03-02T12:56:53;13.00;;;2.03;;
3971;SDS011;2000;47.572;14.202;2024-03-02T12:59:21;2.83;;;0.97;;
3971;SDS011;2000;47.572;14.202;2024-03-02T13:01:53;1.97;;;0.90;;
3971;SDS011;2000;47.572;14.202;2024-03-02T13:04:22;4.13;;;1.10;;
3971;SDS011;2000;47.572;14.202;2024-03-02T13:06:52;4.00;;;1.60;;
3971;SDS011;2000;47.572;14.202;2024-03-02T13:09:20;3.77;;;1.40;;
3971;SDS011;2000;47.572;14.202;2024-03-02T13:11:47;2.07;;;1.20;;
3971;SDS011;2000;47.572;14.202;2024-03-02T13:14:14;3.37;;;1.10;;
3971;SDS011;2000;47.572;14.202;2024-03-02T13:16:42;1.93;;;1.17;;
3971;SDS011;2000;47.572;14.202;2024-03-02T13:19:13;1.13;;;1.03;;
3971;SDS011;2000;47.572;14.202;2024-03-02T13:21:41;1.33;;;0.80;;
3971;SDS011;2000;47.572;14.202;2024-03-02T13:24:08;3.47;;;1.07;;
3971;SDS011;2000;47.572;14.202;2024-03-02T13:26:35;6.40;;;0.97;;
3971;SDS011;2000;47.572;14.202;2024-03-02T13:29:02;3.37;;;1.20;;
3971;SDS011;2000;47.572;14.202;2024-03-02T13:31:29;5.73;;;1.13;;
3971;SDS011;2000;47.572;14.202;2024-03-02T13:33:56;6.43;;;1.17;;
3971;SDS011;2000;47.572;14.202;2024-03-02T13:36:24;4.53;;;0.97;;
3971;SDS011;2000;47.572;14.202;2024-03-02T13:38:51;3.60;;;0.97;;
3971;SDS011;2000;47.572;14.202;2024-03-02T13:41:18;16.53;;;1.30;;
3971;SDS011;2000;47.572;14.202;2024-03-02T13:43:47;1.53;;;0.97;;
3971;SDS011;2000;47.572;14.202;2024-03-02T13:46:16;7.00;;;0.80;;
3971;SDS011;2000;47.572;14.202;2024-03-02T13:48:43;0.53;;;0.53;;
3971;SDS011;2000;47.572;14.202;2024-03-02T13:51:10;1.30;;;0.90;;
3971;SDS011;2000;47.572;14.202;2024-03-02T13:53:37;3.90;;;1.10;;
3971;SDS011;2000;47.572;14.202;2024-03-02T13:56:04;10.87;;;1.17;;
3971;SDS011;2000;47.572;14.202;2024-03-02T13:58:32;1.33;;;0.33;;
3971;SDS011;2000;47.572;14.202;2024-03-02T14:00:59;4.13;;;0.90;;
3971;SDS011;2000;47.572;14.202;2024-03-02T14:03:27;2.70;;;0.80;;
3971;SDS011;2000;47.572;14.202;2024-03-02T14:05:57;2.80;;;1.07;;
3971;SDS011;2000;47.572;14.202;2024-03-02T14:08:24;3.13;;;0.97;;
3971;SDS011;2000;47.572;14.202;2024-03-02T14:10:51;0.67;;;0.50;;
3971;SDS011;2000;47.572;14.202;2024-03-02T14:13:18;1.70;;;0.80;;
3971;SDS011;2000;47.572;14.202;2024-03-02T14:15:45;3.70;;;0.70;;
3971;SDS011;2000;47.572;14.202;2024-03-02T14:18:12;1.13;;;0.40;;
3971;SDS011;2000;47.572;14.202;2024-03-02T14:20:39;3.60;;;0.70;;
3971;SDS011;2000;47.572;14.202;2024-03-02T14:23:10;1.33;;;0.60;;
3971;SDS011;2000;47.572;14.202;2024-03-02T14:25:37;1.57;;;0.63;;
3971;SDS011;2000;47.572;14.202;2024-03-02T14:28:04;3.03;;;0.80;;
3971;SDS011;2000;47.572;14.202;2024-03-02T14:30:34;4.33;;;0.60;;
3971;SDS011;2000;47.572;14.202;2024-03-02T14:33:01;1.83;;;0.60;;
3971;SDS011;2000;47.572;14.202;2024-03-02T14:35:28;6.83;;;0.80;;
3971;SDS011;2000;47.572;14.202;2024-03-02T14:37:55;0.57;;;0.30;;
3971;SDS011;2000;47.572;14.202;2024-03-02T14:40:24;0.73;;;0.73;;
3971;SDS011;2000;47.572;14.202;2024-03-02T14:42:53;4.43;;;2.00;;
3971;SDS011;2000;47.572;14.202;2024-03-02T14:45:20;3.07;;;1.67;;
3971;SDS011;2000;47.572;14.202;2024-03-02T14:47:47;3.13;;;1.20;;
3971;SDS011;2000;47.572;14.202;2024-03-02T14:50:14;1.60;;;1.13;;
3971;SDS011;2000;47.572;14.202;2024-03-02T14:52:44;1.40;;;0.83;;
3971;SDS011;2000;47.572;14.202;2024-03-02T14:55:12;1.47;;;0.70;;
3971;SDS011;2000;47.572;14.202;2024-03-02T14:57:39;2.07;;;1.60;;
3971;SDS011;2000;47.572;14.202;2024-03-02T15:00:06;1.33;;;1.23;;
3971;SDS011;2000;47.572;14.202;2024-03-02T15:02:34;2.17;;;0.90;;
3971;SDS011;2000;47.572;14.202;2024-03-02T15:05:01;3.03;;;0.63;;
3971;SDS011;2000;47.572;14.202;2024-03-02T15:07:29;3.27;;;1.40;;
3971;SDS011;2000;47.572;14.202;2024-03-02T15:09:56;0.70;;;0.70;;